This is the latest recevied weather packets stored in our database for station/object 9W2SSS-1. If no packets are shown the sender has not sent any weather packets the latest 10 day(s).
| Time | Temp. | Humidity | Pressure | Rain* | Wind** | Luminosity | Snow |
|---|---|---|---|---|---|---|---|
| 1777402988 | 30° C | 68% | 1007.2 hPa | - | - | - | - |
| 1777401788 | 30° C | 68% | 1007.3 hPa | - | - | - | - |
| 1777400588 | 30° C | 67% | 1007.4 hPa | - | - | - | - |
| 1777399388 | 30° C | 68% | 1007.6 hPa | - | - | - | - |
| 1777398188 | 30° C | 66% | 1007.6 hPa | - | - | - | - |
| 1777396987 | 29.44° C | 66% | 1007.9 hPa | - | - | - | - |
| 1777395787 | 29.44° C | 65% | 1008.5 hPa | - | - | - | - |
| 1777394587 | 28.89° C | 56% | 1008.7 hPa | - | - | - | - |
| 1777393387 | 29.44° C | 62% | 1009 hPa | - | - | - | - |
| 1777392187 | 29.44° C | 62% | 1009.1 hPa | - | - | - | - |
| 1777390987 | 30° C | 63% | 1008.9 hPa | - | - | - | - |
| 1777389787 | 30.56° C | 64% | 1008.8 hPa | - | - | - | - |
| 1777387387 | 31.11° C | 66% | 1008.8 hPa | - | - | - | - |
| 1777386187 | 31.11° C | 66% | 1008.7 hPa | - | - | - | - |
| 1777384987 | 31.11° C | 66% | 1008.4 hPa | - | - | - | - |
| 1777383787 | 31.11° C | 65% | 1008.1 hPa | - | - | - | - |
| 1777382587 | 31.11° C | 66% | 1008.1 hPa | - | - | - | - |
| 1777381387 | 31.11° C | 64% | 1007.9 hPa | - | - | - | - |
| 1777380187 | 31.11° C | 64% | 1007.6 hPa | - | - | - | - |
| 1777378987 | 31.67° C | 64% | 1007.1 hPa | - | - | - | - |
| 1777377787 | 31.67° C | 64% | 1007 hPa | - | - | - | - |
| 1777376586 | 31.67° C | 63% | 1006.5 hPa | - | - | - | - |
| 1777375386 | 31.67° C | 60% | 1006.5 hPa | - | - | - | - |
| 1777374186 | 32.22° C | 60% | 1006.3 hPa | - | - | - | - |
| 1777371788 | 32.78° C | 58% | 1005.9 hPa | - | - | - | - |
* Rain since midnight (hover to see other rain measurements)
** Current wind speed in m/s (hover to see current wind gust speed)